Arlington, OR

9:20 PM PDT on March 27, 2015 (GMT -0700)
KORARLIN2 | | Change Station
CLOSE
Current Station
Personal Weather Station
Location: Arlington, OR
Elevation: 890 ft
Nearby Weather Stations

Elev 890 ft 45.72 °N, 120.18 °W | Updated 51 seconds ago

Mostly Cloudy
Mostly Cloudy
61.5 °F
Feels Like 61.5 °F
N
17.0
Wind Variable Wind from West
Gusts 21.0 mph

Today
High -- | Low -- °F
--% Chance of Precip.
Yesterday
High -- | Low -- °F
Precip. -- in
6:50 AM 7:22 PM
First Quarter, 58% visible
Pressure 29.86 in
Visibility 10.0 miles
Clouds Mostly Cloudy 9000 ft
Dew Point 43 °F
Humidity 51%
Rainfall 0.00 in
Snow Depth Not available.
UV 0.0 out of 12
Pollen 9.40 out of 12
Air Quality Not available.
Flu Activity Not available.
METAR KHRI 280353Z AUTO 24011KT 10SM -RA BKN090 21/09 A2986 RMK AO2 RAB52 SLP109 P0000 T02060089

More Conditions Fewer Conditions

Pressure 29.86 in
Visibility 10.0 miles
Clouds Mostly Cloudy 9000 ft
Dew Point 43 °F
Humidity 51%
Rainfall 0.00 in
Snow Depth Not available.
UV 0.0 out of 12
Pollen 9.40 out of 12
Air Quality Not available.
Flu Activity Not available.
METAR KHRI 280353Z AUTO 24011KT 10SM -RA BKN090 21/09 A2986 RMK AO2 RAB52 SLP109 P0000 T02060089

More Conditions Fewer Conditions

10-Day Weather Forecast

Almanac

Astronomy

Mar. 27, 2015 Rise Set
Actual Time
Civil Twilight
Nautical Twilight
Astronomical Twilight
Moon
Length of Visible Light
Length of Day
Tomorrow will be .
, % of the Moon is Illuminated

Today's Extremes

State Highs State Lows

Community

WunderPhotos

Upload Photos

1,808,928 photos uploaded!

WunderBlogs® & News

Nearby

Air Quality

  Air Quality AQ Index Pollutant
Not available.

Snow Depth

Station Depth Elevation

Earthquake Activity

City Distance Mag. Time & Date
Minimum magnitude displayed is 2.5.

Coastal Water Temperatures

Place Temperature

Stations

Nearby Weather Stations

Station Location Temp. Windchill Dew Point Humidity Wind Precip. Elev Updated Type